Time;durP1;ratioP1;P1;durP2;ratioP2;P2;SDS_P1;SDS_P2;PMS_P1;PMS_P2;Temp;Humidity;BMP_temperature;BMP_pressure;BME280_temperature;BME280_humidity;BME280_pressure;Samples;Min_cycle;Max_cycle;Signal;HPM_P1;HPM_P2
2022/07/07 00:00:21;;;;;;;1999.90;999.90;;;12.30;97.00;;;;;;5073922;28;20108;-78
2022/07/07 00:02:48;;;;;;;1999.90;999.90;;;12.20;98.30;;;;;;5091310;28;20052;-78
2022/07/07 00:05:14;;;;;;;1999.90;999.90;;;12.10;98.20;;;;;;5077954;28;20038;-78
2022/07/07 00:07:39;;;;;;;1999.90;999.90;;;12.00;99.00;;;;;;5084605;28;20031;-78
2022/07/07 00:10:06;;;;;;;1999.90;999.90;;;12.00;96.90;;;;;;5071415;28;20555;-80
2022/07/07 00:12:31;;;;;;;1999.90;999.90;;;12.10;97.70;;;;;;5098704;28;20047;-79
2022/07/07 00:14:57;;;;;;;1999.90;999.90;;;12.10;95.70;;;;;;5100436;28;20394;-79
2022/07/07 00:17:23;;;;;;;1999.90;999.90;;;12.10;94.80;;;;;;5066772;28;20070;-79
2022/07/07 00:19:48;;;;;;;1999.90;999.90;;;12.10;94.70;;;;;;5061145;28;20032;-79
2022/07/07 00:22:14;;;;;;;1999.90;999.90;;;12.00;97.50;;;;;;5075578;28;20581;-79
2022/07/07 00:24:40;;;;;;;1999.90;999.90;;;11.90;98.90;;;;;;5059750;28;20560;-79
2022/07/07 00:27:05;;;;;;;1999.90;999.90;;;11.90;99.40;;;;;;5074942;28;20405;-78
2022/07/07 00:29:31;;;;;;;1999.90;999.90;;;11.80;99.60;;;;;;5095472;28;20052;-79
2022/07/07 00:31:57;;;;;;;1999.90;999.90;;;11.80;98.50;;;;;;5071872;28;20036;-78
2022/07/07 00:34:22;;;;;;;1999.90;999.90;;;11.80;98.40;;;;;;5092229;28;20077;-78
2022/07/07 00:36:48;;;;;;;1999.90;999.90;;;11.80;97.00;;;;;;5077608;28;20032;-78
2022/07/07 00:39:13;;;;;;;1999.90;999.90;;;11.80;96.30;;;;;;5101846;28;20043;-78
2022/07/07 00:41:39;;;;;;;1999.90;999.90;;;11.80;95.60;;;;;;5098109;28;20060;-78
2022/07/07 00:44:06;;;;;;;1999.90;999.90;;;11.80;97.30;;;;;;5076275;28;20106;-78
2022/07/07 00:46:42;;;;;;;1999.90;999.90;;;11.70;98.10;;;;;;5061984;28;20073;-83
2022/07/07 00:49:09;;;;;;;1999.90;999.90;;;11.70;98.60;;;;;;5085313;28;20028;-78
2022/07/07 00:51:35;;;;;;;1999.90;999.90;;;11.70;97.80;;;;;;5060029;28;20073;-79
2022/07/07 00:54:01;;;;;;;1999.90;999.90;;;11.60;98.00;;;;;;5073750;28;20035;-78
2022/07/07 00:56:26;;;;;;;1999.90;999.90;;;11.60;97.10;;;;;;5076380;28;20027;-78
2022/07/07 00:58:52;;;;;;;1999.90;999.90;;;11.50;97.60;;;;;;5091912;28;20031;-78
2022/07/07 01:01:18;;;;;;;1999.90;999.90;;;11.60;97.50;;;;;;5055534;28;20032;-79
2022/07/07 01:03:43;;;;;;;1999.90;999.90;;;11.60;97.70;;;;;;5089406;28;20031;-78
2022/07/07 01:06:10;;;;;;;1999.90;999.90;;;11.70;97.40;;;;;;5066522;28;20202;-78
2022/07/07 01:08:36;;;;;;;1999.90;999.90;;;11.70;96.60;;;;;;5084367;28;20054;-80
2022/07/07 01:11:01;;;;;;;1999.90;999.90;;;11.80;95.00;;;;;;5100078;28;20502;-79
2022/07/07 01:13:27;;;;;;;1999.90;999.90;;;11.80;94.60;;;;;;5075117;28;20388;-78
2022/07/07 01:15:53;;;;;;;1999.90;999.90;;;11.80;95.60;;;;;;5061934;28;20485;-79
2022/07/07 01:18:18;;;;;;;1999.90;999.90;;;11.80;96.90;;;;;;5081307;28;20526;-78
2022/07/07 01:20:47;;;;;;;1999.90;999.90;;;11.80;97.50;;;;;;5058405;28;20062;-78
2022/07/07 01:23:13;;;;;;;1999.90;999.90;;;11.90;96.20;;;;;;5080966;28;20107;-77
2022/07/07 01:25:39;;;;;;;1999.90;999.90;;;11.90;97.50;;;;;;5064576;28;20028;-78
2022/07/07 01:28:05;;;;;;;1999.90;999.90;;;11.90;97.70;;;;;;5057872;28;20030;-78
2022/07/07 01:30:30;;;;;;;1999.90;999.90;;;11.80;99.00;;;;;;5068536;28;20147;-78
2022/07/07 01:32:56;;;;;;;1999.90;999.90;;;11.80;97.80;;;;;;5070998;28;20036;-80
2022/07/07 01:35:22;;;;;;;1999.90;999.90;;;11.90;96.80;;;;;;5046841;28;20039;-78
2022/07/07 01:37:48;;;;;;;1999.90;999.90;;;11.70;98.30;;;;;;5106566;28;20051;-78
2022/07/07 01:40:13;;;;;;;1999.90;999.90;;;11.70;99.10;;;;;;5049163;28;20019;-78
2022/07/07 01:42:39;;;;;;;1999.90;999.90;;;11.70;96.50;;;;;;5095860;28;20031;-78
2022/07/07 01:45:05;;;;;;;1999.90;999.90;;;11.60;97.00;;;;;;5082067;28;20028;-81
2022/07/07 01:47:31;;;;;;;1999.90;999.90;;;11.60;97.10;;;;;;5063518;28;20031;-79
2022/07/07 01:49:57;;;;;;;1999.90;999.90;;;11.60;97.20;;;;;;5062749;28;20030;-79
2022/07/07 01:52:25;;;;;;;1999.90;999.90;;;11.70;96.50;;;;;;5078660;28;20035;-78
2022/07/07 01:54:51;;;;;;;1999.90;999.90;;;11.70;97.30;;;;;;5094563;28;20078;-79
2022/07/07 01:57:17;;;;;;;1999.90;999.90;;;11.70;97.90;;;;;;5069979;28;20556;-79
2022/07/07 01:59:43;;;;;;;1999.90;999.90;;;11.70;99.00;;;;;;5070339;28;20387;-79
2022/07/07 02:02:08;;;;;;;1999.90;999.90;;;11.80;99.00;;;;;;5066635;28;20040;-78
2022/07/07 02:04:34;;;;;;;1999.90;999.90;;;11.80;99.10;;;;;;5061562;28;20016;-78
2022/07/07 02:07:00;;;;;;;1999.90;999.90;;;11.70;98.70;;;;;;5076516;28;20112;-78
2022/07/07 02:09:26;;;;;;;1999.90;999.90;;;11.70;97.20;;;;;;5097061;28;20024;-79
2022/07/07 02:11:51;;;;;;;1999.90;999.90;;;11.70;98.90;;;;;;5081587;28;20024;-78
2022/07/07 02:14:17;;;;;;;1999.90;999.90;;;11.80;99.80;;;;;;5081343;28;20052;-78
2022/07/07 02:16:43;;;;;;;1999.90;999.90;;;11.90;98.60;;;;;;5039274;28;20036;-79
2022/07/07 02:19:08;;;;;;;1999.90;999.90;;;11.90;98.10;;;;;;5036616;28;20036;-78
2022/07/07 02:21:35;;;;;;;1999.90;999.90;;;12.00;98.70;;;;;;5096374;28;20188;-79
2022/07/07 02:24:02;;;;;;;1999.90;999.90;;;12.00;96.30;;;;;;5072923;28;20056;-78
2022/07/07 02:26:27;;;;;;;1999.90;999.90;;;11.90;97.60;;;;;;5057387;28;20023;-78
2022/07/07 02:28:53;;;;;;;1999.90;999.90;;;11.80;98.60;;;;;;5072256;28;20740;-78
2022/07/07 02:31:19;;;;;;;1999.90;999.90;;;12.00;95.90;;;;;;5070856;28;20042;-78
2022/07/07 02:33:45;;;;;;;1999.90;999.90;;;12.00;96.70;;;;;;5053562;28;20036;-78
2022/07/07 02:36:11;;;;;;;1999.90;999.90;;;12.00;97.20;;;;;;5102001;28;20058;-78
2022/07/07 02:38:38;;;;;;;1999.90;999.90;;;12.10;98.20;;;;;;5083131;28;20031;-78
2022/07/07 02:41:05;;;;;;;1999.90;999.90;;;12.00;98.70;;;;;;5079933;28;20032;-78
2022/07/07 02:43:32;;;;;;;1999.90;999.90;;;12.10;99.10;;;;;;5095103;28;20016;-78
2022/07/07 02:45:57;;;;;;;1999.90;999.90;;;12.10;99.00;;;;;;5077915;28;20495;-79
2022/07/07 02:48:24;;;;;;;1999.90;999.90;;;12.10;97.90;;;;;;5093844;28;20032;-78
2022/07/07 02:50:51;;;;;;;1999.90;999.90;;;12.00;98.10;;;;;;5093796;28;20059;-78
2022/07/07 02:53:18;;;;;;;1999.90;999.90;;;12.00;98.60;;;;;;5043492;28;20059;-78
2022/07/07 02:55:44;;;;;;;1999.90;999.90;;;11.90;98.50;;;;;;5063306;28;20040;-80
2022/07/07 02:58:11;;;;;;;1999.90;999.90;;;11.80;99.40;;;;;;5081452;28;20103;-79
2022/07/07 03:00:38;;;;;;;1999.90;999.90;;;11.80;99.10;;;;;;5073295;28;20044;-78
2022/07/07 03:03:08;;;;;;;1999.90;999.90;;;11.80;99.40;;;;;;5070097;28;20490;-78
2022/07/07 03:05:34;;;;;;;1999.90;999.90;;;11.80;99.50;;;;;;5043433;28;20089;-78
2022/07/07 03:08:00;;;;;;;1999.90;999.90;;;11.70;99.90;;;;;;5093429;28;20020;-78
2022/07/07 03:10:26;;;;;;;1999.90;999.90;;;11.70;99.90;;;;;;5047795;28;20768;-78
2022/07/07 03:12:52;;;;;;;1999.90;999.90;;;11.70;99.90;;;;;;5100488;28;20044;-78
2022/07/07 03:15:18;;;;;;;1999.90;999.90;;;11.70;99.90;;;;;;5103159;28;20063;-79
2022/07/07 03:17:45;;;;;;;1999.90;999.90;;;11.80;99.90;;;;;;5083195;28;20099;-78
2022/07/07 03:20:13;;;;;;;1999.90;999.90;;;11.80;99.50;;;;;;5097648;28;20028;-80
2022/07/07 03:22:39;;;;;;;1999.90;999.90;;;11.80;98.80;;;;;;5076671;28;20062;-78
2022/07/07 03:25:06;;;;;;;1999.90;999.90;;;11.70;99.90;;;;;;5077750;28;20020;-78
2022/07/07 03:27:32;;;;;;;1999.90;999.90;;;11.80;99.90;;;;;;5094477;28;20376;-78
2022/07/07 03:29:58;;;;;;;1999.90;999.90;;;11.70;99.90;;;;;;5071336;28;20114;-78
2022/07/07 03:32:24;;;;;;;1999.90;999.90;;;11.80;99.90;;;;;;5068382;28;20032;-78
2022/07/07 03:34:49;;;;;;;1999.90;999.90;;;11.80;99.90;;;;;;5088761;28;20057;-78
2022/07/07 03:37:15;;;;;;;1999.90;999.90;;;11.80;99.90;;;;;;5067717;28;20422;-78
2022/07/07 03:39:41;;;;;;;1999.90;999.90;;;11.70;99.90;;;;;;5085888;28;20547;-79
2022/07/07 03:42:07;;;;;;;1999.90;999.90;;;11.60;99.90;;;;;;5083819;28;20445;-80
2022/07/07 03:44:33;;;;;;;1999.90;999.90;;;11.50;99.90;;;;;;5086285;28;20098;-79
2022/07/07 03:46:58;;;;;;;1999.90;999.90;;;11.60;99.90;;;;;;5099328;28;20020;-79
2022/07/07 03:49:24;;;;;;;1999.90;999.90;;;11.50;99.90;;;;;;5082706;28;20068;-79
2022/07/07 03:51:49;;;;;;;1999.90;999.90;;;11.50;99.90;;;;;;5099327;28;20431;-79
2022/07/07 03:54:15;;;;;;;1999.90;999.90;;;11.50;99.90;;;;;;5065283;28;20032;-79
2022/07/07 03:56:41;;;;;;;1999.90;999.90;;;11.50;99.90;;;;;;5078620;28;20487;-79
2022/07/07 03:59:07;;;;;;;1999.90;999.90;;;11.50;99.90;;;;;;5088290;28;20034;-80
2022/07/07 04:01:33;;;;;;;1999.90;999.90;;;11.40;99.90;;;;;;5059237;28;20740;-79
2022/07/07 04:03:59;;;;;;;1999.90;999.90;;;11.30;99.90;;;;;;5100734;28;20020;-79
2022/07/07 04:06:24;;;;;;;1999.90;999.90;;;11.30;99.90;;;;;;5108399;28;20083;-79
2022/07/07 04:08:50;;;;;;;1999.90;999.90;;;11.20;99.90;;;;;;5064831;28;20107;-79
2022/07/07 04:11:16;;;;;;;1999.90;999.90;;;11.40;99.90;;;;;;5083853;28;20568;-79
2022/07/07 04:13:42;;;;;;;1999.90;999.90;;;11.50;99.90;;;;;;5059972;28;20109;-79
2022/07/07 04:16:09;;;;;;;1999.90;999.90;;;11.50;99.90;;;;;;5064611;28;20047;-79
2022/07/07 04:18:35;;;;;;;1999.90;999.90;;;11.60;99.90;;;;;;5077823;28;20444;-81
2022/07/07 04:21:01;;;;;;;1999.90;999.90;;;11.60;99.90;;;;;;5076745;28;20506;-80
2022/07/07 04:23:27;;;;;;;1999.90;999.90;;;11.60;99.90;;;;;;5096861;28;20503;-79
2022/07/07 04:25:53;;;;;;;1999.90;999.90;;;11.80;99.90;;;;;;5079065;28;20551;-79
2022/07/07 04:28:19;;;;;;;1999.90;999.90;;;11.90;99.90;;;;;;5072774;28;20103;-79
2022/07/07 04:30:45;;;;;;;1999.90;999.90;;;12.00;99.90;;;;;;5068506;28;20042;-81
2022/07/07 04:33:11;;;;;;;1999.90;999.90;;;12.00;99.90;;;;;;5074790;28;20417;-79
2022/07/07 04:35:37;;;;;;;1999.90;999.90;;;12.10;99.90;;;;;;5085345;28;20054;-79
2022/07/07 04:38:03;;;;;;;1999.90;999.90;;;12.20;99.90;;;;;;5097437;28;20044;-80
2022/07/07 04:40:28;;;;;;;1999.90;999.90;;;12.30;99.90;;;;;;5103849;28;20024;-79
2022/07/07 04:42:54;;;;;;;1999.90;999.90;;;12.20;99.90;;;;;;5065764;28;20038;-80
2022/07/07 04:45:20;;;;;;;1999.90;999.90;;;12.30;99.90;;;;;;5048124;28;20036;-80
2022/07/07 04:47:45;;;;;;;1999.90;999.90;;;12.30;99.90;;;;;;5065175;28;20027;-79
2022/07/07 04:50:13;;;;;;;1999.90;999.90;;;12.40;99.90;;;;;;5059117;28;20032;-80
2022/07/07 04:52:40;;;;;;;1999.90;999.90;;;12.60;99.90;;;;;;5076834;28;20028;-80
2022/07/07 04:55:06;;;;;;;1999.90;999.90;;;12.50;99.90;;;;;;5075968;28;20537;-80
2022/07/07 04:57:32;;;;;;;1999.90;999.90;;;12.60;99.90;;;;;;5091823;28;20024;-80
2022/07/07 04:59:58;;;;;;;1999.90;999.90;;;12.50;99.90;;;;;;5075782;28;20398;-80
2022/07/07 05:02:26;;;;;;;1999.90;999.90;;;12.60;99.90;;;;;;5092863;28;20043;-80
2022/07/07 05:04:52;;;;;;;1999.90;999.90;;;12.80;99.90;;;;;;5069973;28;20119;-81
2022/07/07 05:07:18;;;;;;;1999.90;999.90;;;12.70;99.90;;;;;;5078318;28;20106;-79
2022/07/07 05:09:44;;;;;;;1999.90;999.90;;;12.70;99.90;;;;;;5061132;28;20567;-78
2022/07/07 05:12:10;;;;;;;1999.90;999.90;;;12.90;99.90;;;;;;5099158;28;20031;-78
2022/07/07 05:14:36;;;;;;;1999.90;999.90;;;12.90;99.90;;;;;;5084607;28;20160;-78
2022/07/07 05:17:02;;;;;;;1999.90;999.90;;;12.90;99.90;;;;;;5074901;28;20027;-78
2022/07/07 05:19:27;;;;;;;1999.90;999.90;;;12.80;99.90;;;;;;5090730;28;20432;-77
2022/07/07 05:21:54;;;;;;;1999.90;999.90;;;12.80;99.60;;;;;;5076564;28;20735;-79
2022/07/07 05:24:19;;;;;;;1999.90;999.90;;;12.70;99.90;;;;;;5071757;28;20498;-78
2022/07/07 05:26:45;;;;;;;1999.90;999.90;;;12.70;99.90;;;;;;5086866;28;20050;-80
2022/07/07 05:29:11;;;;;;;1999.90;999.90;;;12.60;99.90;;;;;;5068756;28;20031;-75
2022/07/07 05:31:37;;;;;;;1999.90;999.90;;;12.50;99.90;;;;;;5083235;28;20130;-77
2022/07/07 05:34:02;;;;;;;1999.90;999.90;;;12.50;99.90;;;;;;5077360;28;20035;-81
2022/07/07 05:36:29;;;;;;;1999.90;999.90;;;12.50;99.90;;;;;;5102915;28;20028;-79
2022/07/07 05:38:55;;;;;;;1999.90;999.90;;;12.50;99.90;;;;;;5073408;28;20060;-78
2022/07/07 05:41:21;;;;;;;1999.90;999.90;;;12.50;99.90;;;;;;5079186;28;20036;-78
2022/07/07 05:43:48;;;;;;;1999.90;999.90;;;12.60;99.90;;;;;;5076990;28;20024;-78
2022/07/07 05:46:14;;;;;;;1999.90;999.90;;;12.70;99.90;;;;;;5079943;28;20638;-78
2022/07/07 05:48:39;;;;;;;1999.90;999.90;;;12.70;99.90;;;;;;5074710;28;20023;-79
2022/07/07 05:51:05;;;;;;;1999.90;999.90;;;12.80;99.90;;;;;;5074079;28;20087;-78
2022/07/07 05:53:31;;;;;;;1999.90;999.90;;;12.90;99.90;;;;;;5092749;28;20382;-80
2022/07/07 05:55:57;;;;;;;1999.90;999.90;;;13.00;99.90;;;;;;5090252;28;20031;-79
2022/07/07 05:58:23;;;;;;;1999.90;999.90;;;13.10;99.90;;;;;;5089044;28;20275;-80
2022/07/07 06:00:49;;;;;;;1999.90;999.90;;;13.30;99.90;;;;;;5052196;28;20390;-79
2022/07/07 06:03:15;;;;;;;1999.90;999.90;;;13.40;99.90;;;;;;5094058;28;20028;-80
2022/07/07 06:05:41;;;;;;;1999.90;999.90;;;13.50;99.90;;;;;;5099934;28;20036;-80
2022/07/07 06:08:08;;;;;;;1999.90;999.90;;;13.70;99.90;;;;;;5099731;28;20027;-80
2022/07/07 06:10:34;;;;;;;1999.90;999.90;;;13.90;99.90;;;;;;5097547;28;20032;-80
2022/07/07 06:13:00;;;;;;;1999.90;999.90;;;14.00;99.90;;;;;;5075365;28;20232;-80
2022/07/07 06:15:27;;;;;;;1999.90;999.90;;;14.10;98.30;;;;;;5098322;28;20031;-80
2022/07/07 06:17:54;;;;;;;1999.90;999.90;;;14.10;95.40;;;;;;5091396;28;20391;-80
2022/07/07 06:20:20;;;;;;;1999.90;999.90;;;14.20;94.50;;;;;;5076721;28;20495;-80
2022/07/07 06:22:46;;;;;;;1999.90;999.90;;;14.20;95.70;;;;;;5091890;28;20114;-81
2022/07/07 06:25:11;;;;;;;1999.90;999.90;;;14.20;92.20;;;;;;5072304;28;20099;-80
2022/07/07 06:27:37;;;;;;;1999.90;999.90;;;14.20;92.50;;;;;;5092217;28;20026;-80
2022/07/07 06:30:04;;;;;;;1999.90;999.90;;;14.50;92.20;;;;;;5085973;28;20031;-80
2022/07/07 06:32:31;;;;;;;1999.90;999.90;;;14.80;91.00;;;;;;5085498;28;20420;-79
2022/07/07 06:34:57;;;;;;;1999.90;999.90;;;15.10;91.60;;;;;;5085472;28;20082;-79
2022/07/07 06:37:22;;;;;;;1999.90;999.90;;;15.30;92.00;;;;;;5081234;28;20044;-80
2022/07/07 06:39:48;;;;;;;1999.90;999.90;;;15.50;91.60;;;;;;5082247;28;20542;-79
2022/07/07 06:42:14;;;;;;;1999.90;999.90;;;15.80;86.40;;;;;;5074431;28;20031;-79
2022/07/07 06:44:39;;;;;;;1999.90;999.90;;;15.90;84.80;;;;;;5077209;28;20471;-79
2022/07/07 06:47:05;;;;;;;1999.90;999.90;;;16.10;81.30;;;;;;5079025;28;20038;-79
2022/07/07 06:49:30;;;;;;;1999.90;999.90;;;16.30;85.70;;;;;;5063841;28;20127;-79
2022/07/07 06:51:56;;;;;;;1999.90;999.90;;;16.30;79.30;;;;;;5047198;28;20032;-79
2022/07/07 06:54:23;;;;;;;1999.90;999.90;;;16.10;78.30;;;;;;5074541;28;20505;-80
2022/07/07 06:56:49;;;;;;;1999.90;999.90;;;16.10;78.20;;;;;;5073609;28;20124;-81
2022/07/07 06:59:16;;;;;;;1999.90;999.90;;;16.20;81.50;;;;;;5077672;28;20051;-79
2022/07/07 07:01:42;;;;;;;1999.90;999.90;;;16.60;76.50;;;;;;5055064;28;20123;-78
2022/07/07 07:04:09;;;;;;;1999.90;999.90;;;16.80;75.20;;;;;;5056064;28;20032;-78
2022/07/07 07:06:35;;;;;;;1999.90;999.90;;;17.00;80.80;;;;;;5083935;28;20092;-79
2022/07/07 07:09:01;;;;;;;1999.90;999.90;;;17.60;74.50;;;;;;5082980;28;20035;-79
2022/07/07 07:11:27;;;;;;;1999.90;999.90;;;17.70;65.70;;;;;;5079995;28;20035;-79
2022/07/07 07:13:53;;;;;;;1999.90;999.90;;;17.80;63.30;;;;;;5100766;28;20044;-78
2022/07/07 07:16:19;;;;;;;1999.90;999.90;;;17.70;64.50;;;;;;5098975;28;20093;-79
2022/07/07 07:18:45;;;;;;;1999.90;999.90;;;17.80;67.30;;;;;;5079791;28;20039;-79
2022/07/07 07:21:11;;;;;;;1999.90;999.90;;;17.80;66.70;;;;;;5095995;28;20122;-79
2022/07/07 07:23:38;;;;;;;1999.90;999.90;;;18.10;67.00;;;;;;5078332;28;20077;-79
2022/07/07 07:26:08;;;;;;;1999.90;999.90;;;18.30;67.50;;;;;;5064213;28;20110;-78
2022/07/07 07:28:34;;;;;;;1999.90;999.90;;;18.00;61.60;;;;;;5065229;28;20035;-79
2022/07/07 07:31:00;;;;;;;1999.90;999.90;;;18.10;65.50;;;;;;5092654;28;20141;-79
2022/07/07 07:33:27;;;;;;;1999.90;999.90;;;18.50;65.20;;;;;;5083917;28;20032;-79
2022/07/07 07:35:53;;;;;;;1999.90;999.90;;;18.60;67.90;;;;;;5102232;28;20024;-78
2022/07/07 07:38:19;;;;;;;1999.90;999.90;;;18.60;62.10;;;;;;5086511;28;20019;-79
2022/07/07 07:40:44;;;;;;;1999.90;999.90;;;18.90;63.70;;;;;;5081300;28;20032;-80
2022/07/07 07:43:10;;;;;;;1999.90;999.90;;;19.30;68.90;;;;;;5063880;28;20682;-79
2022/07/07 07:45:37;;;;;;;1999.90;999.90;;;19.40;62.00;;;;;;5082477;28;20068;-79
2022/07/07 07:48:04;;;;;;;1999.90;999.90;;;19.90;63.50;;;;;;5072531;28;20043;-78
2022/07/07 07:50:30;;;;;;;1999.90;999.90;;;19.90;59.00;;;;;;5061450;28;20110;-78
2022/07/07 07:52:56;;;;;;;1999.90;999.90;;;19.50;56.90;;;;;;5072165;28;20443;-78
2022/07/07 07:55:23;;;;;;;1999.90;999.90;;;19.70;59.60;;;;;;5073268;28;20043;-79
2022/07/07 07:57:49;;;;;;;1999.90;999.90;;;20.20;59.20;;;;;;5070876;28;20508;-79
2022/07/07 08:00:18;;;;;;;1999.90;999.90;;;20.10;57.70;;;;;;5074701;28;20028;-79
2022/07/07 08:02:44;;;;;;;1999.90;999.90;;;19.90;56.00;;;;;;5096211;28;20030;-79
2022/07/07 08:05:11;;;;;;;1999.90;999.90;;;19.90;58.10;;;;;;5077929;28;20027;-79
2022/07/07 08:07:37;;;;;;;1999.90;999.90;;;19.30;55.20;;;;;;5079661;28;20016;-80
2022/07/07 08:10:04;;;;;;;1999.90;999.90;;;19.20;58.60;;;;;;5080099;28;20031;-79
2022/07/07 08:12:30;;;;;;;1999.90;999.90;;;19.30;57.70;;;;;;5062478;28;20032;-79
2022/07/07 08:14:55;;;;;;;1999.90;999.90;;;19.60;56.80;;;;;;5053971;28;20027;-80
2022/07/07 08:17:21;;;;;;;1999.90;999.90;;;19.60;59.50;;;;;;5093407;28;20041;-79
2022/07/07 08:19:47;;;;;;;1999.90;999.90;;;19.60;55.10;;;;;;5096130;28;20120;-79
2022/07/07 08:22:13;;;;;;;1999.90;999.90;;;19.50;58.20;;;;;;5072503;28;20160;-79
2022/07/07 08:24:39;;;;;;;1999.90;999.90;;;19.50;58.70;;;;;;5068597;28;20111;-79
2022/07/07 08:27:05;;;;;;;1999.90;999.90;;;19.50;60.70;;;;;;5091374;28;20020;-80
2022/07/07 08:29:31;;;;;;;1999.90;999.90;;;19.50;57.60;;;;;;5071181;28;20028;-79
2022/07/07 08:31:56;;;;;;;1999.90;999.90;;;19.60;60.80;;;;;;5093200;28;20036;-79
2022/07/07 08:34:23;;;;;;;1999.90;999.90;;;19.90;59.90;;;;;;5075870;28;20042;-79
2022/07/07 08:36:49;;;;;;;1999.90;999.90;;;20.00;59.30;;;;;;5083969;28;20032;-79
2022/07/07 08:39:14;;;;;;;1999.90;999.90;;;20.10;60.20;;;;;;5099405;28;20325;-79
2022/07/07 08:41:42;;;;;;;1999.90;999.90;;;19.90;62.30;;;;;;5101932;28;20554;-79
2022/07/07 08:44:08;;;;;;;1999.90;999.90;;;20.20;57.70;;;;;;5089343;28;20046;-79
2022/07/07 08:46:34;;;;;;;1999.90;999.90;;;20.30;57.10;;;;;;5075282;28;20031;-79
2022/07/07 08:49:00;;;;;;;1999.90;999.90;;;20.40;56.40;;;;;;5058258;28;20032;-79
2022/07/07 08:51:26;;;;;;;1999.90;999.90;;;20.50;55.30;;;;;;5077438;28;20032;-79
2022/07/07 08:53:52;;;;;;;1999.90;999.90;;;20.40;56.90;;;;;;5075044;28;20529;-79
2022/07/07 08:56:19;;;;;;;1980.22;989.03;;;20.40;55.20;;;;;;5058818;28;20038;-79
2022/07/07 08:58:45;;;;;;;1879.50;799.53;;;19.90;54.60;;;;;;5062260;28;20135;-81
2022/07/07 09:01:12;;;;;;;1999.90;999.90;;;19.50;57.00;;;;;;5086429;28;20062;-79
2022/07/07 09:03:38;;;;;;;1937.90;983.63;;;19.30;59.20;;;;;;5087285;28;20032;-79
2022/07/07 09:06:04;;;;;;;1999.90;999.90;;;19.10;59.20;;;;;;5083746;28;20419;-79
2022/07/07 09:08:31;;;;;;;1999.90;999.90;;;19.30;60.30;;;;;;5097394;28;20032;-79
2022/07/07 09:10:57;;;;;;;1999.90;999.90;;;19.10;69.50;;;;;;5077354;28;20045;-79
2022/07/07 09:13:32;;;;;;;1999.90;999.90;;;19.00;66.70;;;;;;5079014;28;20192;-78
2022/07/07 09:16:05;;;;;;;1999.90;999.90;;;19.40;66.30;;;;;;5080683;28;20024;-79
2022/07/07 09:18:34;;;;;;;1999.90;999.90;;;19.60;66.50;;;;;;5096354;28;20028;-79
2022/07/07 09:21:03;;;;;;;1494.30;753.72;;;20.00;61.90;;;;;;5090280;28;20032;-79
2022/07/07 09:23:30;;;;;;;1999.90;999.90;;;20.10;58.10;;;;;;5087940;28;20040;-79
2022/07/07 09:25:55;;;;;;;1999.90;999.90;;;20.00;60.50;;;;;;5073986;28;20024;-79
2022/07/07 09:28:21;;;;;;;1921.22;774.30;;;20.30;59.90;;;;;;5092548;28;20024;-79
2022/07/07 09:30:48;;;;;;;1999.90;999.90;;;20.70;57.70;;;;;;5066265;28;20107;-79
2022/07/07 09:33:26;;;;;;;1999.90;999.90;;;21.00;56.70;;;;;;5088007;28;20080;-80
2022/07/07 09:38:40;;;;;;;1999.90;999.90;;;21.40;55.60;;;;;;5068925;28;20188;-79
2022/07/07 09:41:12;;;;;;;1999.90;999.90;;;21.40;56.00;;;;;;5100042;28;20039;-80
2022/07/07 09:43:46;;;;;;;1999.90;999.90;;;21.40;54.40;;;;;;5058936;28;20427;-80
2022/07/07 09:46:20;;;;;;;1999.90;999.90;;;21.20;52.80;;;;;;5074359;28;20118;-80
2022/07/07 09:48:47;;;;;;;1308.43;588.47;;;21.00;55.90;;;;;;5095330;28;20081;-80
2022/07/07 09:51:20;;;;;;;1999.90;999.90;;;20.60;55.80;;;;;;5089700;28;20043;-79
2022/07/07 09:53:57;;;;;;;1999.90;999.90;;;20.20;54.40;;;;;;5069760;28;20050;-79
2022/07/07 09:56:24;;;;;;;1999.90;999.90;;;19.90;57.70;;;;;;5054561;28;20050;-80
2022/07/07 09:58:50;;;;;;;1999.90;999.90;;;20.70;56.50;;;;;;5056578;28;20119;-80
2022/07/07 10:01:24;;;;;;;1999.90;999.90;;;21.20;57.20;;;;;;5094691;28;20036;-79
2022/07/07 10:03:55;;;;;;;1999.90;999.90;;;21.80;55.10;;;;;;5065073;28;20028;-80
2022/07/07 10:06:21;;;;;;;1999.90;999.90;;;22.40;53.20;;;;;;5091889;28;20028;-81
2022/07/07 10:08:54;;;;;;;1999.90;999.90;;;22.50;53.20;;;;;;5062562;28;20282;-80
2022/07/07 10:11:21;;;;;;;1999.90;999.90;;;21.70;49.50;;;;;;5065245;28;20039;-80
2022/07/07 10:13:49;;;;;;;1173.93;563.58;;;22.40;54.90;;;;;;5077468;28;20103;-80
2022/07/07 10:16:15;;;;;;;1508.68;743.45;;;22.80;48.70;;;;;;5072284;28;20024;-80
2022/07/07 10:18:42;;;;;;;1999.90;999.90;;;22.50;50.00;;;;;;5075302;28;20513;-80
2022/07/07 10:21:08;;;;;;;1999.90;999.90;;;22.30;51.70;;;;;;5058378;28;20042;-78
2022/07/07 10:23:34;;;;;;;1999.90;999.90;;;22.00;47.90;;;;;;5080607;28;20034;-82
2022/07/07 10:26:02;;;;;;;1999.90;999.90;;;21.80;51.60;;;;;;5077920;28;20124;-86
2022/07/07 10:28:50;;;;;;;1999.90;999.90;;;21.80;52.50;;;;;;5043155;28;20039;-84
2022/07/07 10:31:36;;;;;;;1999.90;999.90;;;21.20;51.70;;;;;;5069971;28;20085;-84
2022/07/07 10:34:03;;;;;;;1999.90;999.90;;;20.70;52.50;;;;;;5108259;28;20034;-83
2022/07/07 10:36:52;;;;;;;1999.90;999.90;;;20.60;55.00;;;;;;5070970;28;20081;-82
2022/07/07 10:39:22;;;;;;;1999.90;999.90;;;20.40;57.80;;;;;;5070249;28;20092;-85
2022/07/07 10:42:05;;;;;;;1999.90;999.90;;;20.60;55.10;;;;;;5063579;28;20086;-82
2022/07/07 10:44:35;;;;;;;1999.90;999.90;;;20.50;55.30;;;;;;5089426;28;20032;-82
2022/07/07 10:47:16;;;;;;;1504.95;657.63;;;20.50;55.20;;;;;;5092656;28;20028;-83
2022/07/07 10:49:44;;;;;;;1999.90;999.90;;;20.60;52.70;;;;;;5078710;28;20019;-83
2022/07/07 10:52:18;;;;;;;1999.90;999.90;;;20.70;55.60;;;;;;5089522;28;20354;-81
2022/07/07 10:54:55;;;;;;;1999.90;999.90;;;20.60;54.70;;;;;;5093883;28;20027;-87
2022/07/07 10:57:29;;;;;;;1999.90;999.90;;;20.50;55.30;;;;;;5055399;28;20155;-81
2022/07/07 11:00:01;;;;;;;1999.90;999.90;;;20.40;56.20;;;;;;5095308;28;20459;-81
2022/07/07 11:02:32;;;;;;;1999.90;999.90;;;20.20;57.50;;;;;;5080612;28;20043;-83
2022/07/07 11:04:59;;;;;;;1999.90;999.90;;;20.00;56.90;;;;;;5068975;28;20168;-83
2022/07/07 11:07:26;;;;;;;1999.90;999.90;;;19.80;59.60;;;;;;5066288;28;20076;-82
2022/07/07 11:09:55;;;;;;;1999.90;999.90;;;19.80;58.30;;;;;;5099929;28;20026;-82
2022/07/07 11:12:54;;;;;;;1999.90;999.90;;;20.00;60.20;;;;;;5076988;28;20024;-85
2022/07/07 11:15:27;;;;;;;1999.90;999.90;;;20.40;58.40;;;;;;5066243;28;20040;-81
2022/07/07 11:17:52;;;;;;;1999.90;999.90;;;21.10;55.00;;;;;;5076146;28;20040;-83
2022/07/07 11:20:20;;;;;;;1999.90;999.90;;;21.60;55.20;;;;;;5096405;28;20169;-81
2022/07/07 11:22:48;;;;;;;1999.90;999.90;;;21.60;53.60;;;;;;5092156;28;20024;-81
2022/07/07 11:25:15;;;;;;;1999.90;999.90;;;21.80;54.30;;;;;;5074134;28;20356;-81
2022/07/07 11:27:41;;;;;;;1999.90;999.90;;;21.90;53.30;;;;;;5077266;28;20164;-81
2022/07/07 11:30:08;;;;;;;1999.90;999.90;;;22.10;53.00;;;;;;5070809;28;20471;-82
2022/07/07 11:32:38;;;;;;;1999.90;999.90;;;21.80;54.70;;;;;;5078215;28;20750;-81
2022/07/07 11:35:09;;;;;;;1999.90;999.90;;;21.20;52.80;;;;;;5083630;28;20072;-81
2022/07/07 11:37:39;;;;;;;1999.90;999.90;;;21.10;53.60;;;;;;5081669;28;20051;-82
2022/07/07 11:40:27;;;;;;;1999.90;999.90;;;20.80;57.50;;;;;;5098732;28;20024;-83
2022/07/07 11:42:53;;;;;;;1999.90;999.90;;;20.80;58.60;;;;;;5079403;28;20093;-81
2022/07/07 11:45:23;;;;;;;1999.90;999.90;;;20.60;56.70;;;;;;5062444;28;20036;-81
2022/07/07 11:47:50;;;;;;;1999.90;999.90;;;20.30;58.20;;;;;;5097224;28;20391;-87
2022/07/07 11:50:17;;;;;;;1999.90;999.90;;;20.20;58.00;;;;;;5076606;28;20106;-82
2022/07/07 11:52:52;;;;;;;1999.90;999.90;;;20.10;58.00;;;;;;5077553;28;20069;-82
2022/07/07 11:55:19;;;;;;;1999.90;999.90;;;19.90;60.10;;;;;;5052063;28;20041;-81
2022/07/07 11:57:55;;;;;;;1999.90;999.90;;;19.70;62.40;;;;;;5087994;28;20031;-85
2022/07/07 12:00:26;;;;;;;1999.90;999.90;;;19.50;62.10;;;;;;5075400;28;20110;-81